Time;durP1;ratioP1;P1;durP2;ratioP2;P2;SDS_P1;SDS_P2;PMS_P1;PMS_P2;Temp;Humidity;BMP_temperature;BMP_pressure;BME280_temperature;BME280_humidity;BME280_pressure;Samples;Min_cycle;Max_cycle;Signal;HPM_P1;HPM_P2
2021/06/03 00:01:35;;;;;;;;;;;23.70;38.40;;;;;;8327391;28;20053;-47
2021/06/03 00:05:43;;;;;;;5.13;2.80;;;23.70;38.60;;;;;;8303118;28;19948;-47
2021/06/03 00:09:43;;;;;;;3.53;2.95;;;23.70;38.30;;;;;;8294600;28;20135;-46
2021/06/03 00:13:46;;;;;;;4.57;2.60;;;23.70;38.10;;;;;;8296607;28;20033;-45
2021/06/03 00:17:47;;;;;;;4.25;2.92;;;23.70;38.20;;;;;;8331358;28;20109;-46
2021/06/03 00:21:48;;;;;;;4.68;3.00;;;23.70;38.10;;;;;;8326269;28;20096;-47
2021/06/03 00:25:49;;;;;;;3.50;3.10;;;23.70;38.20;;;;;;8307610;28;20053;-45
2021/06/03 00:29:49;;;;;;;3.95;3.33;;;23.70;38.30;;;;;;8293145;28;20042;-46
2021/06/03 00:33:50;;;;;;;5.50;3.10;;;23.70;38.30;;;;;;8298516;28;20395;-45
2021/06/03 00:37:51;;;;;;;4.20;3.28;;;23.70;38.30;;;;;;8323002;28;20276;-46
2021/06/03 00:41:52;;;;;;;;;;;23.70;38.20;;;;;;8326568;28;20486;-46
2021/06/03 00:45:52;;;;;;;3.30;2.50;;;23.70;38.10;;;;;;8314668;28;19913;-46
2021/06/03 00:49:53;;;;;;;3.55;2.75;;;23.70;38.20;;;;;;8293674;28;20117;-46
2021/06/03 00:53:54;;;;;;;4.90;2.60;;;23.70;38.10;;;;;;8330192;28;20033;-46
2021/06/03 00:57:55;;;;;;;3.65;3.22;;;23.70;38.30;;;;;;8300864;28;20057;-45
2021/06/03 01:01:56;;;;;;;3.80;3.00;;;23.70;38.10;;;;;;8291213;28;20048;-46
2021/06/03 01:06:00;;;;;;;4.10;3.10;;;23.70;38.80;;;;;;8298999;28;21140;-47
2021/06/03 01:10:12;;;;;;;3.15;2.72;;;23.70;38.20;;;;;;8330216;28;20292;-46
2021/06/03 01:14:25;;;;;;;5.90;3.28;;;23.60;38.10;;;;;;8293498;28;20026;-46
2021/06/03 01:18:26;;;;;;;4.07;2.95;;;23.70;38.10;;;;;;8316102;28;20037;-46
2021/06/03 01:22:39;;;;;;;3.35;2.78;;;23.60;38.20;;;;;;8324896;28;20049;-46
2021/06/03 01:26:41;;;;;;;2.65;2.42;;;23.70;38.00;;;;;;8318359;28;20173;-46
2021/06/03 01:30:46;;;;;;;3.20;2.83;;;23.60;38.10;;;;;;8296848;28;20045;-46
2021/06/03 01:34:48;;;;;;;4.70;3.22;;;23.60;38.10;;;;;;8290941;28;20503;-45
2021/06/03 01:38:49;;;;;;;3.33;3.03;;;23.60;38.10;;;;;;8311870;28;20496;-46
2021/06/03 01:42:49;;;;;;;4.05;3.00;;;23.60;38.00;;;;;;8322601;28;20053;-47
2021/06/03 01:46:50;;;;;;;3.45;3.10;;;23.60;38.60;;;;;;8300277;28;20088;-47
2021/06/03 01:50:53;;;;;;;3.92;2.67;;;23.60;38.30;;;;;;8301160;28;20044;-46
2021/06/03 01:54:54;;;;;;;3.58;2.80;;;23.60;38.20;;;;;;8299193;28;20398;-47
2021/06/03 01:58:57;;;;;;;3.83;3.03;;;23.60;38.40;;;;;;8310106;28;20037;-46
2021/06/03 02:02:58;;;;;;;3.72;3.00;;;23.60;38.30;;;;;;8330782;28;20453;-46
2021/06/03 02:06:59;;;;;;;3.67;2.97;;;23.60;38.30;;;;;;8335789;28;20026;-46
2021/06/03 02:11:00;;;;;;;3.00;2.67;;;23.60;38.60;;;;;;8329222;28;20636;-46
2021/06/03 02:15:06;;;;;;;2.92;2.58;;;23.60;38.20;;;;;;8330911;28;20040;-47
2021/06/03 02:19:12;;;;;;;4.65;3.22;;;23.60;38.60;;;;;;8330815;28;20037;-47
2021/06/03 02:23:14;;;;;;;3.08;2.78;;;23.60;38.40;;;;;;8332986;28;20091;-47
2021/06/03 02:27:16;;;;;;;3.08;2.78;;;23.60;38.40;;;;;;8300080;28;20034;-47
2021/06/03 02:31:17;;;;;;;4.03;3.00;;;23.60;38.50;;;;;;8298078;28;20514;-45
2021/06/03 02:35:18;;;;;;;4.43;3.00;;;23.60;38.50;;;;;;8309151;28;20060;-47
2021/06/03 02:39:21;;;;;;;3.28;2.90;;;23.50;38.60;;;;;;8327261;28;20110;-47
2021/06/03 02:43:21;;;;;;;3.40;2.83;;;23.60;38.50;;;;;;8301963;28;20072;-46
2021/06/03 02:47:22;;;;;;;5.33;3.70;;;23.50;38.40;;;;;;8295606;28;20026;-48
2021/06/03 02:51:23;;;;;;;3.85;3.05;;;23.60;38.40;;;;;;8295950;28;20399;-48
2021/06/03 02:55:24;;;;;;;3.95;2.92;;;23.50;38.50;;;;;;8304614;28;20029;-47
2021/06/03 02:59:25;;;;;;;3.13;2.65;;;23.50;38.50;;;;;;8332389;28;20494;-47
2021/06/03 03:03:26;;;;;;;3.50;2.55;;;23.50;38.60;;;;;;8329565;28;20143;-47
2021/06/03 03:07:27;;;;;;;4.83;3.10;;;23.50;38.40;;;;;;8308275;28;20033;-46
2021/06/03 03:11:27;;;;;;;3.88;3.00;;;23.50;38.30;;;;;;8306317;28;20273;-47
2021/06/03 03:15:28;;;;;;;5.17;2.90;;;23.50;38.60;;;;;;8328244;28;20045;-48
2021/06/03 03:19:29;;;;;;;3.15;2.85;;;23.50;38.60;;;;;;8300450;28;20034;-46
2021/06/03 03:23:30;;;;;;;4.00;2.97;;;23.50;38.50;;;;;;8319821;28;20041;-46
2021/06/03 03:27:30;;;;;;;3.33;2.90;;;23.50;38.70;;;;;;8328721;28;20034;-46
2021/06/03 03:31:31;;;;;;;3.57;2.90;;;23.50;38.60;;;;;;8324233;28;20034;-48
2021/06/03 03:35:31;;;;;;;3.35;3.05;;;23.50;38.40;;;;;;8298426;28;20423;-47
2021/06/03 03:39:32;;;;;;;3.33;3.00;;;23.50;38.40;;;;;;8296010;28;20034;-47
2021/06/03 03:43:33;;;;;;;2.77;2.57;;;23.50;38.40;;;;;;8295428;28;20192;-46
2021/06/03 03:47:33;;;;;;;3.23;2.83;;;23.40;38.30;;;;;;8302568;28;20264;-47
2021/06/03 03:51:34;;;;;;;3.83;2.67;;;23.40;38.30;;;;;;8332307;28;20033;-47
2021/06/03 03:55:34;;;;;;;3.00;2.60;;;23.40;38.50;;;;;;8326469;28;20552;-47
2021/06/03 03:59:36;;;;;;;3.90;2.92;;;23.40;38.40;;;;;;8304314;28;20065;-48
2021/06/03 04:03:37;;;;;;;3.63;2.70;;;23.40;38.30;;;;;;8296161;28;20428;-47
2021/06/03 04:07:38;;;;;;;3.05;2.75;;;23.40;38.40;;;;;;8295316;28;20049;-46
2021/06/03 04:11:38;;;;;;;3.25;2.95;;;23.50;38.60;;;;;;8297277;28;20030;-46
2021/06/03 04:15:39;;;;;;;3.37;3.07;;;23.40;39.00;;;;;;8295290;28;20068;-46
2021/06/03 04:19:40;;;;;;;2.93;2.50;;;23.40;38.30;;;;;;8310017;28;20144;-46
2021/06/03 04:23:41;;;;;;;3.03;2.78;;;23.40;38.20;;;;;;8319169;28;20296;-47
2021/06/03 04:27:42;;;;;;;3.10;2.80;;;23.40;38.20;;;;;;8298703;28;20030;-47
2021/06/03 04:31:42;;;;;;;3.58;2.65;;;23.40;38.40;;;;;;8323639;28;20041;-47
2021/06/03 04:35:43;;;;;;;3.58;3.05;;;23.40;38.30;;;;;;8324440;28;20030;-48
2021/06/03 04:39:44;;;;;;;3.38;2.88;;;23.40;38.20;;;;;;8317001;28;20121;-46
2021/06/03 04:43:44;;;;;;;3.00;2.47;;;23.40;38.30;;;;;;8293134;28;20049;-47
2021/06/03 04:47:45;;;;;;;3.23;2.93;;;23.40;38.40;;;;;;8329616;28;20037;-46
2021/06/03 04:51:46;;;;;;;;;;;23.50;38.40;;;;;;8303627;28;20033;-47
2021/06/03 04:55:46;;;;;;;3.20;2.53;;;23.40;38.50;;;;;;8292217;28;20381;-48
2021/06/03 04:59:47;;;;;;;3.33;2.77;;;23.40;38.60;;;;;;8293977;28;20498;-48
2021/06/03 05:03:48;;;;;;;2.90;2.60;;;23.40;38.40;;;;;;8297462;28;20280;-47
2021/06/03 05:07:49;;;;;;;2.90;2.60;;;23.40;38.70;;;;;;8291848;28;20634;-47
2021/06/03 05:11:50;;;;;;;5.10;3.85;;;23.40;38.60;;;;;;8310258;28;20037;-47
2021/06/03 05:15:50;;;;;;;3.23;2.70;;;23.40;38.40;;;;;;8324214;28;20117;-47
2021/06/03 05:19:51;;;;;;;2.83;2.40;;;23.40;38.60;;;;;;8327946;28;20041;-46
2021/06/03 05:23:52;;;;;;;3.50;2.60;;;23.40;38.40;;;;;;8324879;28;20391;-47
2021/06/03 05:27:52;;;;;;;2.87;2.60;;;23.40;38.30;;;;;;8325344;28;20029;-48
2021/06/03 05:31:53;;;;;;;3.72;2.90;;;23.40;38.30;;;;;;8312520;28;20097;-47
2021/06/03 05:35:55;;;;;;;2.88;2.55;;;23.40;38.50;;;;;;8293866;28;20475;-47
2021/06/03 05:39:55;;;;;;;3.47;2.92;;;23.40;38.90;;;;;;8329246;28;20044;-49
2021/06/03 05:43:56;;;;;;;3.47;2.83;;;23.40;38.20;;;;;;8298813;28;20046;-46
2021/06/03 05:47:57;;;;;;;3.47;2.80;;;23.40;38.20;;;;;;8307323;28;20454;-47
2021/06/03 05:52:02;;;;;;;3.45;2.70;;;23.40;38.20;;;;;;8323604;28;20041;-48
2021/06/03 05:56:03;;;;;;;3.67;2.80;;;23.40;38.80;;;;;;8327057;28;20087;-47
2021/06/03 06:00:12;;;;;;;2.75;2.53;;;23.40;38.20;;;;;;8295963;28;20034;-50
2021/06/03 06:05:56;;;;;;;3.55;2.40;;;23.40;38.50;;;;;;8311993;28;20504;-47
2021/06/03 06:08:33;;;;;;;3.83;2.90;;;23.40;38.40;;;;;;8322576;28;20364;-50
2021/06/03 06:12:34;;;;;;;5.20;2.47;;;23.40;38.50;;;;;;8323954;28;20112;-47
2021/06/03 06:16:36;;;;;;;3.55;2.80;;;23.40;38.60;;;;;;8328547;28;20037;-51
2021/06/03 06:20:38;;;;;;;2.65;2.35;;;23.50;38.40;;;;;;8321269;28;20702;-49
2021/06/03 06:24:39;;;;;;;2.92;2.53;;;23.50;38.50;;;;;;8307553;28;20054;-47
2021/06/03 06:28:40;;;;;;;2.60;2.40;;;23.50;38.60;;;;;;8298621;28;20419;-47
2021/06/03 06:32:40;;;;;;;3.17;2.80;;;23.50;38.50;;;;;;8300438;28;20559;-47
2021/06/03 06:36:41;;;;;;;3.03;2.60;;;23.50;38.50;;;;;;8327949;28;20131;-47
2021/06/03 06:40:42;;;;;;;3.77;3.00;;;23.50;38.80;;;;;;8329792;28;20025;-47
2021/06/03 06:44:43;;;;;;;3.72;3.42;;;23.50;38.70;;;;;;8316874;28;20129;-48
2021/06/03 06:48:43;;;;;;;3.07;2.77;;;23.50;38.70;;;;;;8297641;28;20482;-47
2021/06/03 06:52:44;;;;;;;4.05;2.80;;;23.40;38.60;;;;;;8299448;28;20113;-49
2021/06/03 06:56:44;;;;;;;4.40;2.77;;;23.40;38.70;;;;;;8320988;28;20032;-47
2021/06/03 07:00:45;;;;;;;3.23;2.63;;;23.50;38.80;;;;;;8315005;28;20030;-48
2021/06/03 07:04:46;;;;;;;3.28;2.97;;;23.50;38.90;;;;;;8295321;28;20073;-48
2021/06/03 07:08:46;;;;;;;4.63;2.93;;;23.50;38.90;;;;;;8301012;28;20121;-48
2021/06/03 07:12:50;;;;;;;3.13;2.47;;;23.50;38.90;;;;;;8324408;28;20498;-47
2021/06/03 07:16:50;;;;;;;3.13;2.78;;;23.50;38.90;;;;;;8308123;28;20124;-47
2021/06/03 07:20:51;;;;;;;3.53;2.70;;;23.40;39.10;;;;;;8297193;28;20042;-47
2021/06/03 07:24:51;;;;;;;4.10;2.83;;;23.50;39.10;;;;;;8300182;28;20049;-47
2021/06/03 07:28:52;;;;;;;3.47;2.70;;;23.50;39.20;;;;;;8294862;28;20034;-47
2021/06/03 07:32:54;;;;;;;4.53;2.43;;;23.50;39.30;;;;;;8297007;28;20034;-48
2021/06/03 07:36:55;;;;;;;3.80;2.70;;;23.50;39.40;;;;;;8295812;28;20269;-48
2021/06/03 07:40:56;;;;;;;3.22;2.70;;;23.50;39.30;;;;;;8294100;28;20038;-47
2021/06/03 07:44:56;;;;;;;2.72;2.42;;;23.50;39.40;;;;;;8299940;28;20046;-48
2021/06/03 07:48:57;;;;;;;2.63;2.43;;;23.50;39.30;;;;;;8296135;28;20038;-48
2021/06/03 07:52:59;;;;;;;3.27;2.97;;;23.50;39.40;;;;;;8309978;28;20120;-47
2021/06/03 07:56:59;;;;;;;2.95;2.72;;;23.50;39.50;;;;;;8321341;28;20292;-47
2021/06/03 08:01:01;;;;;;;2.83;2.63;;;23.50;39.60;;;;;;8299114;28;20042;-48
2021/06/03 08:05:01;;;;;;;;;;;23.60;39.60;;;;;;8323289;28;20414;-50
2021/06/03 08:09:03;;;;;;;3.40;2.77;;;23.50;39.50;;;;;;8327414;28;19963;-47
2021/06/03 08:13:03;;;;;;;;;;;23.60;39.70;;;;;;8316749;28;20087;-46
2021/06/03 08:17:04;;;;;;;3.33;2.50;;;23.50;39.60;;;;;;8293350;28;20263;-47
2021/06/03 08:21:05;;;;;;;2.95;2.60;;;23.60;39.30;;;;;;8298828;28;20502;-48
2021/06/03 08:25:06;;;;;;;3.00;2.70;;;23.60;39.30;;;;;;8293964;28;20130;-47
2021/06/03 08:29:07;;;;;;;2.97;2.58;;;23.60;39.60;;;;;;8307242;28;20026;-47
2021/06/03 08:33:08;;;;;;;3.55;2.78;;;23.60;39.30;;;;;;8326818;28;20096;-48
2021/06/03 08:37:09;;;;;;;5.13;2.70;;;23.70;39.40;;;;;;8330684;28;20041;-50
2021/06/03 08:41:10;;;;;;;3.15;2.78;;;23.60;39.60;;;;;;8324448;28;20040;-50
2021/06/03 08:45:12;;;;;;;3.63;2.80;;;23.60;39.50;;;;;;8307864;28;20048;-48
2021/06/03 08:49:13;;;;;;;3.40;3.03;;;23.60;39.80;;;;;;8301880;28;20386;-50
2021/06/03 08:53:14;;;;;;;4.40;2.77;;;23.70;39.90;;;;;;8328564;28;20056;-51
2021/06/03 08:57:14;;;;;;;3.42;2.72;;;23.70;40.00;;;;;;8294511;28;20033;-49
2021/06/03 09:01:16;;;;;;;4.33;3.23;;;23.70;40.30;;;;;;8315244;28;20483;-48
2021/06/03 09:05:17;;;;;;;3.20;2.90;;;23.70;40.20;;;;;;8323852;28;20265;-48
2021/06/03 09:09:28;;;;;;;2.93;2.70;;;23.80;41.00;;;;;;8325308;28;20033;-48
2021/06/03 09:13:33;;;;;;;3.97;2.70;;;23.80;40.50;;;;;;8329936;28;20773;-47
2021/06/03 09:17:47;;;;;;;3.65;2.97;;;23.80;40.80;;;;;;8323099;28;20028;-48
2021/06/03 09:21:52;;;;;;;3.10;2.60;;;23.80;40.10;;;;;;8304984;28;20403;-48
2021/06/03 09:25:54;;;;;;;3.00;2.70;;;23.80;40.40;;;;;;8292137;28;20084;-49
2021/06/03 09:30:01;;;;;;;3.00;2.63;;;23.80;39.80;;;;;;8294243;28;20180;-47
2021/06/03 09:34:08;;;;;;;3.10;2.60;;;23.80;40.10;;;;;;8329533;28;20037;-49
2021/06/03 09:38:09;;;;;;;3.38;2.58;;;23.80;39.80;;;;;;8323017;28;20112;-48
2021/06/03 09:42:20;;;;;;;2.87;2.60;;;23.90;39.60;;;;;;8309133;28;20479;-47
2021/06/03 09:46:20;;;;;;;3.20;2.83;;;23.90;39.50;;;;;;8300537;28;20041;-47
2021/06/03 09:50:23;;;;;;;2.83;2.37;;;23.90;40.00;;;;;;8327482;28;20029;-49
2021/06/03 09:54:25;;;;;;;2.95;2.67;;;23.90;39.50;;;;;;8293550;28;20288;-48
2021/06/03 09:58:41;;;;;;;3.15;2.35;;;23.90;39.60;;;;;;8313556;28;20026;-47
2021/06/03 10:02:43;;;;;;;3.33;2.67;;;24.00;39.10;;;;;;8327725;28;20413;-47
2021/06/03 10:06:53;;;;;;;2.95;2.60;;;24.00;39.50;;;;;;8326645;28;20030;-49
2021/06/03 10:10:53;;;;;;;2.80;2.58;;;24.00;39.40;;;;;;8300928;28;20450;-47
2021/06/03 10:15:00;;;;;;;3.10;2.47;;;24.00;39.10;;;;;;8298692;28;20026;-47
2021/06/03 10:19:18;;;;;;;2.67;2.47;;;24.00;38.70;;;;;;8317938;28;20045;-49
2021/06/03 10:23:25;;;;;;;3.00;2.60;;;24.10;38.30;;;;;;8328771;28;20109;-48
2021/06/03 10:27:29;;;;;;;3.47;2.40;;;24.10;38.50;;;;;;8327314;28;20029;-50
2021/06/03 10:31:30;;;;;;;3.40;2.47;;;24.20;38.20;;;;;;8302170;28;20521;-47
2021/06/03 10:35:33;;;;;;;2.63;2.42;;;24.20;38.20;;;;;;8296634;28;20115;-49
2021/06/03 10:39:33;;;;;;;3.05;2.53;;;24.20;38.10;;;;;;8297890;28;20555;-45
2021/06/03 10:43:37;;;;;;;3.15;2.22;;;24.30;38.00;;;;;;8298043;28;20042;-47
2021/06/03 10:47:38;;;;;;;2.75;2.50;;;24.30;38.40;;;;;;8299689;28;20084;-46
2021/06/03 10:51:42;;;;;;;2.40;2.20;;;24.30;38.20;;;;;;8328570;28;20104;-48
2021/06/03 10:55:48;;;;;;;2.40;2.20;;;24.30;38.40;;;;;;8329478;28;20030;-48
2021/06/03 10:59:50;;;;;;;3.15;2.65;;;24.30;38.30;;;;;;8327699;28;20029;-47
2021/06/03 11:03:57;;;;;;;2.63;2.42;;;24.30;38.60;;;;;;8329465;28;20053;-48
2021/06/03 11:08:35;;;;;;;3.75;2.75;;;24.30;38.30;;;;;;8331727;28;20091;-49
2021/06/03 11:12:36;;;;;;;2.85;2.60;;;24.40;38.10;;;;;;8331427;28;20076;-48
2021/06/03 11:16:36;;;;;;;2.83;2.40;;;24.40;38.10;;;;;;8328486;28;20433;-48
2021/06/03 11:20:45;;;;;;;2.67;2.47;;;24.40;38.00;;;;;;8313717;28;20133;-48
2021/06/03 11:24:46;;;;;;;2.80;2.50;;;24.40;37.90;;;;;;8316371;28;20656;-47
2021/06/03 11:29:06;;;;;;;3.20;2.63;;;24.40;37.90;;;;;;8328236;28;20048;-47
2021/06/03 11:33:07;;;;;;;3.15;2.47;;;24.50;38.00;;;;;;8325004;28;20037;-45
2021/06/03 11:37:10;;;;;;;3.03;2.70;;;24.50;37.90;;;;;;8325217;28;20046;-47
2021/06/03 11:41:35;;;;;;;2.97;2.47;;;24.50;38.20;;;;;;8322675;28;20779;-45
2021/06/03 11:45:44;;;;;;;3.42;2.60;;;24.50;38.00;;;;;;8317899;28;20041;-46
2021/06/03 11:49:44;;;;;;;3.15;2.63;;;24.50;38.20;;;;;;8318853;28;20034;-45
2021/06/03 11:53:50;;;;;;;2.57;2.37;;;24.50;38.30;;;;;;8313850;28;20044;-46
2021/06/03 11:58:10;;;;;;;3.47;2.60;;;24.50;37.80;;;;;;8322982;28;20100;-49
2021/06/03 12:02:30;;;;;;;2.67;2.42;;;24.60;37.80;;;;;;8307234;28;20069;-48
2021/06/03 12:06:30;;;;;;;2.75;2.55;;;24.60;38.10;;;;;;8285893;28;20052;-45
2021/06/03 12:10:31;;;;;;;3.53;2.30;;;24.60;37.80;;;;;;8298901;28;20046;-45
2021/06/03 12:14:40;;;;;;;3.10;2.30;;;24.60;37.80;;;;;;8293678;28;20025;-45
2021/06/03 12:18:43;;;;;;;2.75;2.22;;;24.70;37.90;;;;;;8299640;28;20262;-45
2021/06/03 12:22:44;;;;;;;3.55;2.40;;;24.70;38.40;;;;;;8293073;28;20038;-48
2021/06/03 12:26:44;;;;;;;4.97;2.70;;;24.70;37.60;;;;;;8294085;28;20032;-47
2021/06/03 12:30:45;;;;;;;2.70;2.30;;;24.70;37.70;;;;;;8298562;28;20112;-49
2021/06/03 12:34:46;;;;;;;2.80;2.50;;;24.70;37.70;;;;;;8314038;28;20041;-47
2021/06/03 12:38:49;;;;;;;3.30;2.95;;;24.80;37.50;;;;;;8321293;28;20045;-47
2021/06/03 12:42:50;;;;;;;2.35;2.00;;;24.70;37.60;;;;;;8285087;28;20368;-46
2021/06/03 12:46:53;;;;;;;4.00;2.58;;;24.80;37.80;;;;;;8300676;28;20034;-46
2021/06/03 12:50:54;;;;;;;4.47;2.67;;;24.80;37.50;;;;;;8321760;28;20116;-46
2021/06/03 12:54:59;;;;;;;2.88;2.60;;;24.80;37.50;;;;;;8307752;28;20543;-46
2021/06/03 12:59:00;;;;;;;3.40;2.42;;;24.80;37.40;;;;;;8301579;28;20063;-47
2021/06/03 13:03:12;;;;;;;2.65;2.20;;;24.90;37.60;;;;;;8326944;28;20410;-48
2021/06/03 13:07:17;;;;;;;3.78;3.00;;;24.90;37.40;;;;;;8297466;28;20046;-47
2021/06/03 13:11:45;;;;;;;3.35;2.58;;;24.90;37.60;;;;;;8291579;28;20034;-46
2021/06/03 13:15:47;;;;;;;4.57;3.30;;;24.90;37.40;;;;;;8308185;28;20095;-44
2021/06/03 13:19:49;;;;;;;3.25;2.72;;;24.90;37.30;;;;;;8313551;28;20070;-46
2021/06/03 13:23:50;;;;;;;3.83;3.00;;;24.90;37.60;;;;;;8317145;28;20426;-46
2021/06/03 13:27:51;;;;;;;3.13;2.70;;;24.90;37.30;;;;;;8328687;28;20037;-45
2021/06/03 13:31:55;;;;;;;5.30;3.20;;;25.00;37.20;;;;;;8300102;28;20049;-46
2021/06/03 13:35:58;;;;;;;3.92;2.85;;;25.00;37.10;;;;;;8292674;28;20088;-45
2021/06/03 13:40:02;;;;;;;4.70;3.10;;;25.00;37.10;;;;;;8297436;28;20034;-45
2021/06/03 13:44:03;;;;;;;6.68;3.55;;;25.00;37.10;;;;;;8327379;28;20048;-46
2021/06/03 13:48:24;;;;;;;;;;;25.00;37.10;;;;;;8297793;28;20149;-46
2021/06/03 13:52:24;;;;;;;6.27;3.77;;;25.00;37.10;;;;;;8303096;28;20329;-46
2021/06/03 13:56:27;;;;;;;6.38;3.88;;;25.00;37.10;;;;;;8311263;28;20041;-45
2021/06/03 14:00:41;;;;;;;5.30;3.25;;;25.10;37.10;;;;;;8294490;28;20084;-46
2021/06/03 14:04:43;;;;;;;6.00;4.07;;;25.00;37.10;;;;;;8311178;28;20045;-47
2021/06/03 14:08:46;;;;;;;5.55;3.70;;;25.10;36.90;;;;;;8296602;28;20034;-45
2021/06/03 14:12:49;;;;;;;7.05;4.13;;;25.10;37.00;;;;;;8292339;28;20045;-46
2021/06/03 14:16:59;;;;;;;6.90;4.38;;;25.10;36.90;;;;;;8297890;28;20120;-45
2021/06/03 14:21:07;;;;;;;5.32;3.65;;;25.20;37.00;;;;;;8326094;28;20069;-47
2021/06/03 14:25:11;;;;;;;6.40;4.32;;;25.20;37.00;;;;;;8295806;28;20046;-45
2021/06/03 14:29:11;;;;;;;6.20;3.95;;;25.20;37.00;;;;;;8291411;28;20496;-46
2021/06/03 14:33:20;;;;;;;5.68;4.07;;;25.20;36.90;;;;;;8306184;28;20099;-47
2021/06/03 14:37:27;;;;;;;5.68;4.03;;;25.20;36.90;;;;;;8318450;28;20026;-45
2021/06/03 14:41:41;;;;;;;6.65;4.45;;;25.20;36.80;;;;;;8294179;28;20038;-46
2021/06/03 14:45:48;;;;;;;5.43;4.15;;;25.20;37.00;;;;;;8323140;28;20180;-45
2021/06/03 14:49:50;;;;;;;6.15;4.03;;;25.20;36.90;;;;;;8304709;28;20507;-45
2021/06/03 14:53:52;;;;;;;5.68;4.10;;;25.20;36.80;;;;;;8298180;28;20112;-45
2021/06/03 14:57:54;;;;;;;6.35;4.43;;;25.20;36.80;;;;;;8300627;28;20034;-44
2021/06/03 15:01:55;;;;;;;5.30;3.92;;;25.30;36.80;;;;;;8332073;28;20045;-46
2021/06/03 15:05:55;;;;;;;6.88;4.70;;;25.20;36.70;;;;;;8328967;28;20490;-46
2021/06/03 15:09:56;;;;;;;6.82;4.70;;;25.30;36.80;;;;;;8328958;28;20021;-49
2021/06/03 15:13:57;;;;;;;8.70;4.20;;;25.30;36.70;;;;;;8320755;28;20026;-46
2021/06/03 15:17:57;;;;;;;8.55;4.85;;;25.30;36.70;;;;;;8300774;28;20037;-45
2021/06/03 15:21:59;;;;;;;7.22;4.50;;;25.30;36.60;;;;;;8326753;28;20038;-45
2021/06/03 15:26:00;;;;;;;7.82;5.13;;;25.30;36.70;;;;;;8327185;28;20113;-46
2021/06/03 15:30:01;;;;;;;;;;;25.30;37.30;;;;;;8318721;28;20057;-45
2021/06/03 15:34:02;;;;;;;6.97;4.90;;;25.30;36.60;;;;;;8297249;28;19917;-45
2021/06/03 15:38:05;;;;;;;7.30;5.03;;;25.30;36.70;;;;;;8331152;28;20041;-47
2021/06/03 15:42:07;;;;;;;7.78;5.55;;;25.30;36.70;;;;;;8327807;28;20034;-48
2021/06/03 15:46:08;;;;;;;8.38;5.65;;;25.30;36.60;;;;;;8327721;28;20060;-46
2021/06/03 15:50:13;;;;;;;9.65;5.82;;;25.30;36.60;;;;;;8325745;28;20486;-47
2021/06/03 15:54:14;;;;;;;5.57;4.40;;;25.30;36.60;;;;;;8332315;28;20038;-47
2021/06/03 15:58:16;;;;;;;6.40;4.72;;;25.40;36.70;;;;;;8297946;28;20117;-46
2021/06/03 16:02:16;;;;;;;8.15;5.43;;;25.30;36.60;;;;;;8313371;28;20049;-45
2021/06/03 16:06:17;;;;;;;8.15;5.05;;;25.30;36.60;;;;;;8317590;28;20509;-45
2021/06/03 16:10:19;;;;;;;7.65;5.55;;;25.30;36.60;;;;;;8296476;28;20501;-46
2021/06/03 16:14:19;;;;;;;;;;;25.40;36.70;;;;;;8330422;28;20120;-46
2021/06/03 16:18:20;;;;;;;8.50;5.83;;;25.30;36.50;;;;;;8327020;28;19920;-46
2021/06/03 16:22:20;;;;;;;8.00;5.65;;;25.30;36.60;;;;;;8327082;28;20030;-46
2021/06/03 16:26:21;;;;;;;8.30;5.68;;;25.30;36.50;;;;;;8321082;28;20042;-49
2021/06/03 16:30:25;;;;;;;8.18;5.90;;;25.40;36.60;;;;;;8298787;28;20395;-45
2021/06/03 16:34:26;;;;;;;7.70;6.03;;;25.40;36.60;;;;;;8321945;28;20110;-45
2021/06/03 16:38:27;;;;;;;7.95;5.70;;;25.40;36.60;;;;;;8324134;28;20033;-47
2021/06/03 16:42:27;;;;;;;7.70;5.53;;;25.40;36.60;;;;;;8326199;28;20184;-46
2021/06/03 16:46:28;;;;;;;8.00;5.75;;;25.40;36.60;;;;;;8330596;28;20033;-47
2021/06/03 16:50:29;;;;;;;9.02;6.35;;;25.40;36.60;;;;;;8292688;28;20066;-46
2021/06/03 16:54:31;;;;;;;7.78;5.75;;;25.40;36.60;;;;;;8315275;28;20045;-46
2021/06/03 16:58:33;;;;;;;7.00;5.25;;;25.30;36.60;;;;;;8325387;28;20041;-46
2021/06/03 17:02:33;;;;;;;9.77;6.20;;;25.40;36.60;;;;;;8321250;28;20061;-46
2021/06/03 17:06:37;;;;;;;9.93;6.47;;;25.40;36.60;;;;;;8297405;28;20088;-46
2021/06/03 17:10:40;;;;;;;7.97;5.38;;;25.40;36.60;;;;;;8317710;28;20494;-45
2021/06/03 17:14:40;;;;;;;8.20;5.88;;;25.40;36.50;;;;;;8307437;28;20033;-45
2021/06/03 17:18:41;;;;;;;8.48;5.82;;;25.40;36.60;;;;;;8299171;28;20034;-46
2021/06/03 17:22:42;;;;;;;8.35;6.18;;;25.30;36.50;;;;;;8329789;28;20049;-47
2021/06/03 17:26:42;;;;;;;9.88;5.50;;;25.40;36.50;;;;;;8294033;28;20096;-46
2021/06/03 17:30:43;;;;;;;8.38;5.65;;;25.40;36.60;;;;;;8293856;28;20037;-48
2021/06/03 17:34:44;;;;;;;8.85;5.50;;;25.40;36.50;;;;;;8301363;28;20037;-45
2021/06/03 17:38:44;;;;;;;7.18;5.13;;;25.40;36.60;;;;;;8324305;28;20036;-47
2021/06/03 17:42:45;;;;;;;7.80;5.63;;;25.30;36.50;;;;;;8328917;28;20443;-47
2021/06/03 17:46:45;;;;;;;8.35;6.05;;;25.40;36.60;;;;;;8299036;28;20034;-45
2021/06/03 17:50:47;;;;;;;8.82;5.80;;;25.40;36.50;;;;;;8292157;28;20133;-46
2021/06/03 17:54:48;;;;;;;7.90;5.50;;;25.40;36.60;;;;;;8292187;28;20144;-46
2021/06/03 17:58:48;;;;;;;8.23;5.65;;;25.40;36.50;;;;;;8277021;28;20042;-45
2021/06/03 18:02:50;;;;;;;7.55;5.72;;;25.30;36.60;;;;;;8319681;28;20052;-45
2021/06/03 18:06:50;;;;;;;;;;;25.40;36.70;;;;;;8307421;28;20129;-45
2021/06/03 18:10:51;;;;;;;7.90;5.17;;;25.30;36.60;;;;;;8290590;28;19920;-45
2021/06/03 18:14:51;;;;;;;6.38;4.53;;;25.30;36.80;;;;;;8296122;28;20076;-49
2021/06/03 18:18:52;;;;;;;7.28;4.97;;;25.30;37.40;;;;;;8323065;28;20131;-45
2021/06/03 18:22:54;;;;;;;7.53;4.80;;;25.30;37.20;;;;;;8304712;28;20145;-47
2021/06/03 18:26:55;;;;;;;6.28;4.82;;;25.30;37.30;;;;;;8299070;28;20034;-45
2021/06/03 18:30:55;;;;;;;8.32;4.90;;;25.30;37.60;;;;;;8298372;28;20095;-46
2021/06/03 18:34:56;;;;;;;8.38;4.60;;;25.20;38.10;;;;;;8300453;28;20038;-46
2021/06/03 18:38:56;;;;;;;7.32;4.55;;;25.20;38.50;;;;;;8322910;28;20025;-47
2021/06/03 18:42:57;;;;;;;7.30;4.47;;;25.20;38.90;;;;;;8314948;28;20451;-46
2021/06/03 18:46:58;;;;;;;6.82;4.72;;;25.20;39.20;;;;;;8279030;28;20045;-45
2021/06/03 18:50:59;;;;;;;6.07;4.60;;;25.20;39.20;;;;;;8301711;28;20065;-46
2021/06/03 18:55:00;;;;;;;6.65;4.43;;;25.20;39.10;;;;;;8326354;28;20044;-45
2021/06/03 18:59:00;;;;;;;5.53;4.13;;;25.20;39.10;;;;;;8308816;28;20470;-46
2021/06/03 19:03:03;;;;;;;6.43;4.30;;;25.20;39.10;;;;;;8297383;28;20053;-46
2021/06/03 19:07:04;;;;;;;5.80;4.25;;;25.20;39.10;;;;;;8298569;28;20396;-46
2021/06/03 19:11:06;;;;;;;6.65;4.22;;;25.10;39.20;;;;;;8330382;28;20029;-45
2021/06/03 19:15:08;;;;;;;5.60;3.83;;;25.20;39.30;;;;;;8306804;28;20507;-46
2021/06/03 19:19:09;;;;;;;6.25;4.35;;;25.20;39.50;;;;;;8297651;28;20095;-47
2021/06/03 19:23:09;;;;;;;6.22;4.70;;;25.10;39.40;;;;;;8298183;28;20068;-46
2021/06/03 19:27:11;;;;;;;7.22;4.13;;;25.10;39.20;;;;;;8333304;28;20509;-46
2021/06/03 19:31:13;;;;;;;6.40;4.30;;;25.10;39.80;;;;;;8302288;28;20050;-45
2021/06/03 19:35:20;;;;;;;5.63;3.67;;;25.10;39.60;;;;;;8294207;28;20494;-46
2021/06/03 19:39:21;;;;;;;7.13;4.43;;;25.10;39.80;;;;;;8304728;28;20044;-45
2021/06/03 19:43:22;;;;;;;5.63;3.88;;;25.00;39.90;;;;;;8332706;28;20144;-46
2021/06/03 19:47:23;;;;;;;6.55;4.60;;;25.00;39.50;;;;;;8294466;28;20030;-46
2021/06/03 19:51:23;;;;;;;6.22;4.20;;;25.00;39.60;;;;;;8317943;28;20070;-47
2021/06/03 19:55:26;;;;;;;5.50;4.07;;;25.00;39.70;;;;;;8327613;28;20037;-46
2021/06/03 19:59:27;;;;;;;6.28;4.10;;;25.00;39.60;;;;;;8326023;28;20029;-46
2021/06/03 20:03:28;;;;;;;7.43;5.20;;;25.00;40.10;;;;;;8332173;28;20037;-45
2021/06/03 20:07:28;;;;;;;7.40;4.78;;;25.00;39.50;;;;;;8301567;28;20046;-45
2021/06/03 20:11:29;;;;;;;6.85;4.22;;;25.00;39.30;;;;;;8293719;28;20042;-48
2021/06/03 20:15:29;;;;;;;7.85;4.43;;;25.00;39.20;;;;;;8301419;28;20040;-44
2021/06/03 20:19:30;;;;;;;6.55;4.38;;;25.00;39.30;;;;;;8331315;28;20025;-45
2021/06/03 20:23:31;;;;;;;4.88;3.67;;;25.00;39.20;;;;;;8295306;28;20046;-46
2021/06/03 20:27:32;;;;;;;6.35;4.53;;;25.00;39.20;;;;;;8313714;28;20042;-46
2021/06/03 20:31:33;;;;;;;7.10;4.85;;;25.00;39.10;;;;;;8326307;28;20569;-47
2021/06/03 20:35:34;;;;;;;4.97;4.25;;;25.00;39.10;;;;;;8325305;28;20431;-46
2021/06/03 20:39:34;;;;;;;5.05;4.20;;;25.00;39.60;;;;;;8330763;28;20050;-47
2021/06/03 20:43:36;;;;;;;5.57;4.35;;;25.00;38.90;;;;;;8303412;28;20046;-46
2021/06/03 20:47:37;;;;;;;6.95;4.50;;;25.00;39.00;;;;;;8306277;28;20080;-46
2021/06/03 20:51:37;;;;;;;5.95;4.25;;;25.00;39.00;;;;;;8321557;28;20030;-46
2021/06/03 20:55:40;;;;;;;5.45;4.45;;;25.00;39.10;;;;;;8297697;28;20044;-47
2021/06/03 20:59:40;;;;;;;6.00;4.22;;;25.00;39.00;;;;;;8318069;28;20039;-46
2021/06/03 21:03:41;;;;;;;5.63;4.35;;;25.00;39.00;;;;;;8324786;28;20375;-45